Time;durP1;ratioP1;P1;durP2;ratioP2;P2;SDS_P1;SDS_P2;PMS_P1;PMS_P2;Temp;Humidity;BMP_temperature;BMP_pressure;BME280_temperature;BME280_humidity;BME280_pressure;Samples;Min_cycle;Max_cycle;Signal;HPM_P1;HPM_P2
2022/12/20 00:01:34;;;;;;;10.23;3.75;;;7.40;99.90;;;;;;5057270;28;20045;-68
2022/12/20 00:04:02;;;;;;;;;;;7.30;99.90;;;;;;5061137;28;20094;-68
2022/12/20 00:06:28;;;;;;;8.77;3.33;;;7.30;99.90;;;;;;5058460;28;19917;-69
2022/12/20 00:08:54;;;;;;;;;;;7.30;99.90;;;;;;5062179;28;20568;-68
2022/12/20 00:11:21;;;;;;;6.38;3.45;;;7.30;99.90;;;;;;5057524;28;20003;-68
2022/12/20 00:13:47;;;;;;;8.55;3.97;;;7.30;99.90;;;;;;5074807;28;20039;-68
2022/12/20 00:16:14;;;;;;;;;;;7.40;99.90;;;;;;5055032;28;20048;-67
2022/12/20 00:18:40;;;;;;;6.00;3.50;;;7.50;99.90;;;;;;5057072;28;19928;-68
2022/12/20 00:21:08;;;;;;;6.35;3.45;;;7.50;99.90;;;;;;5055782;28;20071;-68
2022/12/20 00:23:35;;;;;;;5.28;3.58;;;7.40;99.90;;;;;;5058899;28;20074;-68
2022/12/20 00:26:12;;;;;;;6.95;3.65;;;7.50;99.90;;;;;;5055725;28;20041;-68
2022/12/20 00:28:39;;;;;;;6.75;3.40;;;7.50;99.90;;;;;;5061076;28;20131;-68
2022/12/20 00:31:06;;;;;;;7.15;3.75;;;7.60;99.90;;;;;;5036297;28;20048;-68
2022/12/20 00:33:33;;;;;;;10.45;4.00;;;7.60;99.90;;;;;;5045913;28;20049;-68
2022/12/20 00:35:59;;;;;;;6.95;4.00;;;7.70;99.90;;;;;;5039190;28;20712;-68
2022/12/20 00:38:25;;;;;;;;;;;7.70;99.90;;;;;;5043960;28;20053;-68
2022/12/20 00:41:04;;;;;;;6.05;3.67;;;7.80;99.90;;;;;;5040188;28;19921;-67
2022/12/20 00:43:31;;;;;;;8.10;3.60;;;7.80;99.90;;;;;;5043248;28;20045;-68
2022/12/20 00:45:57;;;;;;;7.72;3.58;;;7.80;99.90;;;;;;5041913;28;20069;-68
2022/12/20 00:48:23;;;;;;;7.20;3.38;;;7.80;99.90;;;;;;5041853;28;20045;-68
2022/12/20 00:50:49;;;;;;;10.20;4.25;;;7.80;99.90;;;;;;5042042;28;20535;-68
2022/12/20 00:53:14;;;;;;;;;;;7.80;99.90;;;;;;5043581;28;20537;-68
2022/12/20 00:55:41;;;;;;;5.82;3.50;;;7.80;99.90;;;;;;5041049;28;19917;-68
2022/12/20 00:58:08;;;;;;;5.95;3.90;;;7.80;99.90;;;;;;5046585;28;20087;-68
2022/12/20 01:00:34;;;;;;;7.53;3.55;;;7.80;99.90;;;;;;5041907;28;20428;-68
2022/12/20 01:02:59;;;;;;;;;;;7.80;99.90;;;;;;5045633;28;20037;-68
2022/12/20 01:05:25;;;;;;;3.90;2.60;;;7.80;99.90;;;;;;5039523;28;20301;-68
2022/12/20 01:07:50;;;;;;;5.18;3.17;;;7.80;99.90;;;;;;5044258;28;20140;-69
2022/12/20 01:10:17;;;;;;;4.78;3.30;;;7.80;99.90;;;;;;5045580;28;20044;-68
2022/12/20 01:12:43;;;;;;;6.57;3.50;;;7.60;99.90;;;;;;5043711;28;20393;-69
2022/12/20 01:15:09;;;;;;;;;;;7.50;99.90;;;;;;5041327;28;20036;-69
2022/12/20 01:17:35;;;;;;;5.72;3.55;;;7.40;99.90;;;;;;5042747;28;20377;-69
2022/12/20 01:20:01;;;;;;;;;;;7.40;99.90;;;;;;5036375;28;20058;-69
2022/12/20 01:22:27;;;;;;;6.75;2.80;;;7.40;99.90;;;;;;5042899;28;19923;-68
2022/12/20 01:24:52;;;;;;;;;;;7.40;99.90;;;;;;5048653;28;20663;-68
2022/12/20 01:27:18;;;;;;;9.85;3.75;;;7.50;99.90;;;;;;5064873;28;20300;-68
2022/12/20 01:29:44;;;;;;;12.38;3.97;;;7.50;99.90;;;;;;5044094;28;20100;-67
2022/12/20 01:32:10;;;;;;;6.82;4.03;;;7.60;99.90;;;;;;5029536;28;20041;-65
2022/12/20 01:34:35;;;;;;;4.90;3.42;;;7.60;99.90;;;;;;5039091;28;20032;-69
2022/12/20 01:37:01;;;;;;;5.05;3.42;;;7.60;99.90;;;;;;5040073;28;20191;-70
2022/12/20 01:39:27;;;;;;;4.90;2.25;;;7.60;99.90;;;;;;5045370;28;20354;-68
2022/12/20 01:41:52;;;;;;;5.93;3.58;;;7.60;99.90;;;;;;5041045;28;20123;-68
2022/12/20 01:44:18;;;;;;;8.05;4.03;;;7.50;99.90;;;;;;5042148;28;20037;-69
2022/12/20 01:46:45;;;;;;;;;;;7.50;99.90;;;;;;5041489;28;20060;-69
2022/12/20 01:49:34;;;;;;;6.32;2.42;;;7.60;99.90;;;;;;5039380;28;19928;-69
2022/12/20 01:52:08;;;;;;;5.00;3.25;;;7.70;99.90;;;;;;5037735;28;20122;-68
2022/12/20 01:54:39;;;;;;;6.60;3.60;;;7.60;99.90;;;;;;5053536;28;20060;-68
2022/12/20 01:57:10;;;;;;;5.97;3.55;;;7.60;99.90;;;;;;5040796;28;20041;-68
2022/12/20 01:59:40;;;;;;;7.15;3.50;;;7.50;99.90;;;;;;5044838;28;20087;-68
2022/12/20 02:02:09;;;;;;;6.40;3.55;;;7.50;99.90;;;;;;5038301;28;20126;-68
2022/12/20 02:04:35;;;;;;;6.50;3.50;;;7.30;99.90;;;;;;5045716;28;20130;-69
2022/12/20 02:07:02;;;;;;;;;;;7.30;99.90;;;;;;5057647;28;20079;-69
2022/12/20 02:09:29;;;;;;;9.57;4.32;;;7.30;99.90;;;;;;5044686;28;20026;-69
2022/12/20 02:12:19;;;;;;;8.05;5.32;;;7.30;99.90;;;;;;5038422;28;20046;-69
2022/12/20 02:15:16;;;;;;;7.35;4.40;;;7.30;99.90;;;;;;5040374;28;20029;-69
2022/12/20 02:17:59;;;;;;;9.10;4.13;;;7.30;99.90;;;;;;5042180;28;20078;-69
2022/12/20 02:20:39;;;;;;;11.02;6.05;;;7.20;99.90;;;;;;5033747;28;20691;-69
2022/12/20 02:23:35;;;;;;;7.78;5.32;;;7.30;99.90;;;;;;5041254;28;20439;-70
2022/12/20 02:26:15;;;;;;;9.57;5.40;;;7.30;99.90;;;;;;5041342;28;20090;-69
2022/12/20 02:29:02;;;;;;;8.43;4.30;;;7.30;99.90;;;;;;5045849;28;20094;-70
2022/12/20 02:31:50;;;;;;;16.52;5.13;;;7.20;99.90;;;;;;5042102;28;20045;-70
2022/12/20 02:34:17;;;;;;;9.35;4.70;;;7.20;99.90;;;;;;5028910;28;20434;-70
2022/12/20 02:36:42;;;;;;;14.88;6.90;;;7.10;99.90;;;;;;5035785;28;20036;-70
2022/12/20 02:39:11;;;;;;;;;;;7.20;99.90;;;;;;5045166;28;20053;-70
2022/12/20 02:41:45;;;;;;;9.80;4.95;;;7.20;99.90;;;;;;5034185;28;20007;-68
2022/12/20 02:46:59;;;;;;;;;;;7.10;99.90;;;;;;5044048;28;20037;-69
2022/12/20 02:49:26;;;;;;;;;;;7.10;99.90;;;;;;5033328;28;20393;-70
2022/12/20 02:51:53;;;;;;;12.48;7.53;;;7.10;99.90;;;;;;5038801;28;19924;-69
2022/12/20 02:54:19;;;;;;;17.08;7.50;;;7.30;99.90;;;;;;5041443;28;20098;-69
2022/12/20 02:57:04;;;;;;;15.43;8.68;;;7.30;99.90;;;;;;5031499;28;20215;-69
2022/12/20 02:59:36;;;;;;;15.05;9.10;;;7.30;99.90;;;;;;5068922;28;20052;-69
2022/12/20 03:02:02;;;;;;;15.82;9.18;;;7.30;99.90;;;;;;5038758;28;20044;-68
2022/12/20 03:04:32;;;;;;;16.85;9.48;;;7.30;99.90;;;;;;5045167;28;20451;-69
2022/12/20 03:07:03;;;;;;;15.65;8.90;;;7.30;99.90;;;;;;5042480;28;20040;-69
2022/12/20 03:09:31;;;;;;;15.52;9.20;;;7.30;99.90;;;;;;5044922;28;20045;-69
2022/12/20 03:11:57;;;;;;;15.75;8.95;;;7.20;99.90;;;;;;5041722;28;20128;-69
2022/12/20 03:14:23;;;;;;;;;;;7.30;99.90;;;;;;5043424;28;20116;-69
2022/12/20 03:16:49;;;;;;;13.35;8.77;;;7.30;99.90;;;;;;5035606;28;19928;-68
2022/12/20 03:19:15;;;;;;;15.15;8.77;;;7.20;99.90;;;;;;5045926;28;20066;-69
2022/12/20 03:21:41;;;;;;;;;;;7.20;99.90;;;;;;5040363;28;20621;-69
2022/12/20 03:24:07;;;;;;;17.38;9.75;;;7.20;99.90;;;;;;5038276;28;19913;-69
2022/12/20 03:26:33;;;;;;;20.05;10.40;;;7.20;99.90;;;;;;5040012;28;20041;-69
2022/12/20 03:28:58;;;;;;;18.92;9.10;;;7.10;99.90;;;;;;5043227;28;20202;-69
2022/12/20 03:31:24;;;;;;;18.05;9.75;;;7.10;99.90;;;;;;5036784;28;20237;-69
2022/12/20 03:33:50;;;;;;;;;;;7.10;99.90;;;;;;5041613;28;20623;-68
2022/12/20 03:36:15;;;;;;;18.23;10.25;;;7.10;99.90;;;;;;5039143;28;19921;-69
2022/12/20 03:38:41;;;;;;;;;;;7.10;99.90;;;;;;5040533;28;20486;-68
2022/12/20 03:41:07;;;;;;;17.23;9.02;;;7.10;99.90;;;;;;5040949;28;19916;-69
2022/12/20 03:43:32;;;;;;;15.82;9.45;;;7.10;99.90;;;;;;5042977;28;20064;-69
2022/12/20 03:45:58;;;;;;;16.15;9.40;;;7.20;99.90;;;;;;5041842;28;20032;-68
2022/12/20 03:48:24;;;;;;;15.38;8.80;;;7.20;99.90;;;;;;5041335;28;20037;-69
2022/12/20 03:50:49;;;;;;;15.20;8.95;;;7.20;99.90;;;;;;5035921;28;20029;-70
2022/12/20 03:53:15;;;;;;;14.70;9.32;;;7.30;99.90;;;;;;5039035;28;20041;-68
2022/12/20 03:55:41;;;;;;;14.85;8.73;;;7.30;99.90;;;;;;5042385;28;20037;-69
2022/12/20 03:58:06;;;;;;;15.25;8.80;;;7.30;99.90;;;;;;5046600;28;20116;-69
2022/12/20 04:00:32;;;;;;;17.48;9.25;;;7.30;99.90;;;;;;5040377;28;20040;-68
2022/12/20 04:02:58;;;;;;;;;;;7.30;99.90;;;;;;5037121;28;20041;-69
2022/12/20 04:05:24;;;;;;;15.27;9.52;;;7.30;99.90;;;;;;5042508;28;19931;-70
2022/12/20 04:07:49;;;;;;;;;;;7.30;99.90;;;;;;5046721;28;20051;-69
2022/12/20 04:10:15;;;;;;;16.35;9.55;;;7.30;99.90;;;;;;5046961;28;19917;-69
2022/12/20 04:12:40;;;;;;;;;;;7.30;99.90;;;;;;5045928;28;20045;-69
2022/12/20 04:15:07;;;;;;;18.25;9.48;;;7.30;99.90;;;;;;5044351;28;19921;-69
2022/12/20 04:17:32;;;;;;;15.50;8.88;;;7.30;99.90;;;;;;5045716;28;20499;-69
2022/12/20 04:20:17;;;;;;;;;;;7.40;99.90;;;;;;5048213;28;20140;-69
2022/12/20 04:22:44;;;;;;;13.30;8.52;;;7.40;99.90;;;;;;5044732;28;19959;-69
2022/12/20 04:25:10;;;;;;;13.60;8.13;;;7.40;99.90;;;;;;5043492;28;20045;-69
2022/12/20 04:27:36;;;;;;;;;;;7.30;99.90;;;;;;5043871;28;20047;-69
2022/12/20 04:30:01;;;;;;;15.20;8.73;;;7.40;99.90;;;;;;5047655;28;20404;-69
2022/12/20 04:32:27;;;;;;;13.55;7.50;;;7.30;99.90;;;;;;5041203;28;20416;-68
2022/12/20 04:34:52;;;;;;;;;;;7.30;99.90;;;;;;5043668;28;20035;-68
2022/12/20 04:37:18;;;;;;;13.75;8.45;;;7.30;99.90;;;;;;5041790;28;20566;-68
2022/12/20 04:39:44;;;;;;;17.42;8.85;;;7.30;99.90;;;;;;5046178;28;20082;-68
2022/12/20 04:42:09;;;;;;;17.27;8.07;;;7.30;99.90;;;;;;5043370;28;20060;-68
2022/12/20 04:44:35;;;;;;;14.43;8.20;;;7.30;99.90;;;;;;5046213;28;20045;-68
2022/12/20 04:47:01;;;;;;;;;;;7.30;99.90;;;;;;5039820;28;20029;-68
2022/12/20 04:49:26;;;;;;;13.07;8.30;;;7.30;99.90;;;;;;5039899;28;19943;-68
2022/12/20 04:51:52;;;;;;;;;;;7.30;99.90;;;;;;5042937;28;20037;-68
2022/12/20 04:54:18;;;;;;;12.88;8.38;;;7.20;99.90;;;;;;5043655;28;19943;-69
2022/12/20 04:56:43;;;;;;;;;;;7.20;99.90;;;;;;5039747;28;20057;-67
2022/12/20 04:59:10;;;;;;;13.60;7.28;;;7.20;99.90;;;;;;5046596;28;19932;-67
2022/12/20 05:01:36;;;;;;;13.60;7.30;;;7.10;99.90;;;;;;5041665;28;20037;-67
2022/12/20 05:04:01;;;;;;;;;;;7.00;99.90;;;;;;5040753;28;20033;-67
2022/12/20 05:06:27;;;;;;;12.98;7.88;;;7.00;99.90;;;;;;5041993;28;19920;-66
2022/12/20 05:08:54;;;;;;;;;;;7.10;99.90;;;;;;5046057;28;20048;-67
2022/12/20 05:11:19;;;;;;;12.32;7.55;;;7.20;99.90;;;;;;5050048;28;19917;-68
2022/12/20 05:13:45;;;;;;;11.95;7.32;;;7.20;99.90;;;;;;5041574;28;20041;-68
2022/12/20 05:16:11;;;;;;;15.93;8.55;;;7.20;99.90;;;;;;5040263;28;20045;-68
2022/12/20 05:18:36;;;;;;;13.55;7.65;;;7.20;99.90;;;;;;5044349;28;20092;-67
2022/12/20 05:26:35;;;;;;;14.20;7.63;;;7.40;99.90;;;;;;5039341;28;20029;-68
2022/12/20 05:29:01;;;;;;;15.10;7.95;;;7.40;99.90;;;;;;5046493;28;20048;-67
2022/12/20 05:31:27;;;;;;;;;;;7.40;99.90;;;;;;5042582;28;20037;-68
2022/12/20 05:33:53;;;;;;;13.15;7.40;;;7.40;99.90;;;;;;5040998;28;20000;-68
2022/12/20 05:36:19;;;;;;;;;;;7.40;99.90;;;;;;5037756;28;21124;-68
2022/12/20 05:38:44;;;;;;;10.73;5.82;;;7.40;99.90;;;;;;5047874;28;19929;-67
2022/12/20 05:41:10;;;;;;;;;;;7.30;99.90;;;;;;5045901;28;20070;-67
2022/12/20 05:43:35;;;;;;;13.05;6.82;;;7.40;99.90;;;;;;5048638;28;20403;-69
2022/12/20 05:46:01;;;;;;;;;;;7.50;99.90;;;;;;5045650;28;20037;-69
2022/12/20 05:48:27;;;;;;;11.52;7.00;;;7.50;99.90;;;;;;5047755;28;19916;-68
2022/12/20 05:50:53;;;;;;;10.80;5.93;;;7.50;99.90;;;;;;5045807;28;20397;-68
2022/12/20 05:53:18;;;;;;;10.60;5.93;;;7.50;99.90;;;;;;5045181;28;20188;-69
2022/12/20 05:55:48;;;;;;;11.88;6.28;;;7.50;99.90;;;;;;5040448;28;20461;-69
2022/12/20 05:58:14;;;;;;;9.77;6.30;;;7.50;99.90;;;;;;5030453;28;20045;-68
2022/12/20 06:00:42;;;;;;;;;;;7.50;99.90;;;;;;5036950;28;20555;-68
2022/12/20 06:03:10;;;;;;;9.60;5.95;;;7.50;99.90;;;;;;5043741;28;19998;-68
2022/12/20 06:05:37;;;;;;;13.40;5.72;;;7.50;99.90;;;;;;5042703;28;20037;-68
2022/12/20 06:08:04;;;;;;;12.85;6.32;;;7.50;99.90;;;;;;5041311;28;20497;-68
2022/12/20 06:10:31;;;;;;;13.73;7.07;;;7.50;99.90;;;;;;5042907;28;20045;-68
2022/12/20 06:12:57;;;;;;;11.35;6.22;;;7.50;99.90;;;;;;5046482;28;20504;-66
2022/12/20 06:15:22;;;;;;;;;;;7.50;99.90;;;;;;5042602;28;20055;-68
2022/12/20 06:17:48;;;;;;;15.77;6.57;;;7.50;99.90;;;;;;5040389;28;19983;-67
2022/12/20 06:20:14;;;;;;;12.75;7.47;;;7.50;99.90;;;;;;5032833;28;20497;-63
2022/12/20 06:22:39;;;;;;;;;;;7.40;99.90;;;;;;5038230;28;20063;-68
2022/12/20 06:25:08;;;;;;;10.90;6.18;;;7.40;99.90;;;;;;5040406;28;19921;-68
2022/12/20 06:27:34;;;;;;;14.52;7.72;;;7.40;99.90;;;;;;5043258;28;20073;-68
2022/12/20 06:30:01;;;;;;;11.23;6.80;;;7.40;99.90;;;;;;5035900;28;20515;-67
2022/12/20 06:32:26;;;;;;;14.00;7.05;;;7.40;99.90;;;;;;5033058;28;20113;-67
2022/12/20 06:34:52;;;;;;;;;;;7.40;99.90;;;;;;5039760;28;20118;-68
2022/12/20 06:37:18;;;;;;;12.45;7.18;;;7.40;99.90;;;;;;5055928;28;19917;-64
2022/12/20 06:39:43;;;;;;;;;;;7.40;99.90;;;;;;5043367;28;20033;-65
2022/12/20 06:42:09;;;;;;;16.30;7.60;;;7.40;99.90;;;;;;5034445;28;19916;-68
2022/12/20 06:44:34;;;;;;;;;;;7.40;99.90;;;;;;5041093;28;20469;-67
2022/12/20 06:47:00;;;;;;;12.43;7.63;;;7.30;99.90;;;;;;5038862;28;19916;-62
2022/12/20 06:49:26;;;;;;;;;;;7.30;99.90;;;;;;5031957;28;20049;-68
2022/12/20 06:51:51;;;;;;;13.05;6.63;;;7.30;99.90;;;;;;5040688;28;19923;-68
2022/12/20 06:54:17;;;;;;;;;;;7.30;99.90;;;;;;5040582;28;20507;-67
2022/12/20 06:56:43;;;;;;;13.82;7.07;;;7.30;99.90;;;;;;5060346;28;19924;-68
2022/12/20 06:59:09;;;;;;;14.32;7.53;;;7.30;99.90;;;;;;5040116;28;20099;-68
2022/12/20 07:01:34;;;;;;;;;;;7.30;99.90;;;;;;4997288;28;20041;-68
2022/12/20 07:04:00;;;;;;;12.13;7.45;;;7.30;99.90;;;;;;5071046;28;20595;-68
2022/12/20 07:06:28;;;;;;;11.48;6.88;;;7.30;99.90;;;;;;5030049;28;20045;-67
2022/12/20 07:08:54;;;;;;;10.13;6.57;;;7.30;99.90;;;;;;5039485;28;20135;-67
2022/12/20 07:11:20;;;;;;;12.13;6.60;;;7.30;99.90;;;;;;5040904;28;20075;-66
2022/12/20 07:13:45;;;;;;;;;;;7.30;99.90;;;;;;5042310;28;20064;-66
2022/12/20 07:16:11;;;;;;;12.70;7.65;;;7.40;99.90;;;;;;5041304;28;19920;-67
2022/12/20 07:18:37;;;;;;;12.48;7.50;;;7.40;99.90;;;;;;5045156;28;20141;-65
2022/12/20 07:21:04;;;;;;;;;;;7.40;99.90;;;;;;5041722;28;20545;-66
2022/12/20 07:23:29;;;;;;;12.23;6.90;;;7.50;99.90;;;;;;5040690;28;19921;-66
2022/12/20 07:25:55;;;;;;;;;;;7.50;99.90;;;;;;5027779;28;20042;-64
2022/12/20 07:28:22;;;;;;;11.48;6.47;;;7.50;99.90;;;;;;5032724;28;19924;-68
2022/12/20 07:30:48;;;;;;;10.60;6.80;;;7.50;99.90;;;;;;5038751;28;20119;-65
2022/12/20 07:33:14;;;;;;;;;;;7.50;99.90;;;;;;5035515;28;20120;-66
2022/12/20 07:35:39;;;;;;;11.73;6.70;;;7.50;99.90;;;;;;5038096;28;19964;-70
2022/12/20 07:38:05;;;;;;;14.93;8.48;;;7.50;99.90;;;;;;5029920;28;20049;-68
2022/12/20 07:40:31;;;;;;;;;;;7.40;99.90;;;;;;5042557;28;20167;-68
2022/12/20 07:42:56;;;;;;;10.68;6.82;;;7.40;99.90;;;;;;5047167;28;19921;-67
2022/12/20 07:45:22;;;;;;;16.20;8.35;;;7.40;99.90;;;;;;5044090;28;20037;-68
2022/12/20 07:47:48;;;;;;;13.05;7.85;;;7.40;99.90;;;;;;5040754;28;20145;-65
2022/12/20 07:50:13;;;;;;;;;;;7.30;99.90;;;;;;5043313;28;20037;-65
2022/12/20 07:52:41;;;;;;;13.43;8.32;;;7.30;99.90;;;;;;5042169;28;19921;-65
2022/12/20 07:55:09;;;;;;;18.38;7.57;;;7.30;99.90;;;;;;5056564;28;20116;-64
2022/12/20 07:57:42;;;;;;;12.52;7.63;;;7.30;99.90;;;;;;5042198;28;20163;-66
2022/12/20 08:00:08;;;;;;;14.80;7.50;;;7.30;99.90;;;;;;5040578;28;20053;-67
2022/12/20 08:02:56;;;;;;;10.43;7.13;;;7.40;99.90;;;;;;5045379;28;20056;-65
2022/12/20 08:05:23;;;;;;;12.02;7.57;;;7.40;99.90;;;;;;5045908;28;20072;-64
2022/12/20 08:07:49;;;;;;;20.38;7.85;;;7.40;99.90;;;;;;5038101;28;20067;-66
2022/12/20 08:10:18;;;;;;;12.13;8.38;;;7.50;99.90;;;;;;5039750;28;20123;-67
2022/12/20 08:12:46;;;;;;;10.38;6.75;;;7.50;99.90;;;;;;5040603;28;20062;-67
2022/12/20 08:15:12;;;;;;;13.23;8.52;;;7.50;99.90;;;;;;5046609;28;20527;-67
2022/12/20 08:17:38;;;;;;;12.48;7.82;;;7.50;99.90;;;;;;5044412;28;20029;-67
2022/12/20 08:20:05;;;;;;;;;;;7.60;99.90;;;;;;5039593;28;20044;-68
2022/12/20 08:22:32;;;;;;;11.85;5.95;;;7.60;99.90;;;;;;5044403;28;19976;-66
2022/12/20 08:24:57;;;;;;;11.10;6.40;;;7.60;99.90;;;;;;5047062;28;20041;-67
2022/12/20 08:27:23;;;;;;;;;;;7.60;99.90;;;;;;5027968;28;20484;-67
2022/12/20 08:29:48;;;;;;;9.75;6.40;;;7.70;99.90;;;;;;5036123;28;19923;-67
2022/12/20 08:32:14;;;;;;;;;;;7.60;99.90;;;;;;5047317;28;20456;-67
2022/12/20 08:34:40;;;;;;;9.90;5.85;;;7.70;99.90;;;;;;5047746;28;20327;-67
2022/12/20 08:37:06;;;;;;;10.57;6.72;;;7.70;99.90;;;;;;5041035;28;20041;-67
2022/12/20 08:39:32;;;;;;;11.88;6.55;;;7.80;99.90;;;;;;5046525;28;20072;-67
2022/12/20 08:41:58;;;;;;;;;;;7.90;99.90;;;;;;5043725;28;20048;-65
2022/12/20 08:44:24;;;;;;;10.32;5.82;;;8.00;99.90;;;;;;5045457;28;19920;-67
2022/12/20 08:46:50;;;;;;;10.10;6.28;;;8.00;99.90;;;;;;5045315;28;20049;-67
2022/12/20 08:49:16;;;;;;;8.85;5.45;;;8.00;99.90;;;;;;5048001;28;20056;-67
2022/12/20 08:51:42;;;;;;;;;;;8.10;99.90;;;;;;5043615;28;20040;-66
2022/12/20 08:54:08;;;;;;;10.23;5.72;;;8.10;99.90;;;;;;5046609;28;19916;-66
2022/12/20 08:56:33;;;;;;;12.48;6.00;;;8.10;99.90;;;;;;5043087;28;20068;-67
2022/12/20 08:58:59;;;;;;;;;;;8.20;99.90;;;;;;5045913;28;20048;-67
2022/12/20 09:01:25;;;;;;;12.20;6.78;;;8.10;99.90;;;;;;5043306;28;19946;-67
2022/12/20 09:03:52;;;;;;;10.68;5.80;;;8.10;99.90;;;;;;5045303;28;20461;-67
2022/12/20 09:06:19;;;;;;;8.85;5.32;;;8.10;99.90;;;;;;5041754;28;20037;-67
2022/12/20 09:08:46;;;;;;;11.82;6.22;;;8.20;99.90;;;;;;5043578;28;20102;-67
2022/12/20 09:11:15;;;;;;;12.70;7.00;;;8.20;99.90;;;;;;5041828;28;20093;-67
2022/12/20 09:13:41;;;;;;;13.25;5.95;;;8.20;99.90;;;;;;5043172;28;20044;-67
2022/12/20 09:16:08;;;;;;;8.52;5.63;;;8.20;99.90;;;;;;5045443;28;20041;-67
2022/12/20 09:18:35;;;;;;;10.73;6.15;;;8.20;99.90;;;;;;5047314;28;20531;-66
2022/12/20 09:21:05;;;;;;;9.52;5.88;;;8.30;99.90;;;;;;5043896;28;20120;-68
2022/12/20 09:23:32;;;;;;;11.07;6.70;;;8.40;99.90;;;;;;5045381;28;20111;-67
2022/12/20 09:26:04;;;;;;;11.38;5.90;;;8.40;99.90;;;;;;5041611;28;20121;-66
2022/12/20 09:28:30;;;;;;;9.70;6.05;;;8.40;99.90;;;;;;5036995;28;20124;-67
2022/12/20 09:31:00;;;;;;;12.25;6.38;;;8.30;99.90;;;;;;5012103;28;20120;-67
2022/12/20 09:33:27;;;;;;;9.75;5.60;;;8.30;99.90;;;;;;5042610;28;20083;-66
2022/12/20 09:35:53;;;;;;;8.65;5.85;;;8.40;99.90;;;;;;5037582;28;20059;-67
2022/12/20 09:38:19;;;;;;;10.48;5.40;;;8.40;99.90;;;;;;5037603;28;20098;-68
2022/12/20 09:40:52;;;;;;;;;;;8.40;99.90;;;;;;5044311;28;20037;-67
2022/12/20 09:43:20;;;;;;;9.88;6.35;;;8.50;99.90;;;;;;5044388;28;20347;-68
2022/12/20 09:45:49;;;;;;;11.32;6.25;;;8.40;99.90;;;;;;5039445;28;20029;-65
2022/12/20 09:48:34;;;;;;;8.60;5.00;;;8.40;99.90;;;;;;5043905;28;20052;-66
2022/12/20 09:51:26;;;;;;;9.85;5.10;;;8.40;99.90;;;;;;5041163;28;20548;-66
2022/12/20 09:54:19;;;;;;;12.23;5.97;;;8.50;99.90;;;;;;5042042;28;20036;-67
2022/12/20 09:57:16;;;;;;;11.18;5.80;;;8.50;99.90;;;;;;5040713;28;20049;-66
2022/12/20 09:59:43;;;;;;;9.02;5.88;;;8.40;99.90;;;;;;5057031;28;20524;-67
2022/12/20 10:02:11;;;;;;;8.85;5.32;;;8.40;99.90;;;;;;5036380;28;20049;-67
2022/12/20 10:04:38;;;;;;;9.30;6.15;;;8.40;99.90;;;;;;5041052;28;20036;-65
2022/12/20 10:07:23;;;;;;;9.48;5.65;;;8.50;99.90;;;;;;5073116;28;20044;-66
2022/12/20 10:10:01;;;;;;;8.20;5.00;;;8.50;99.90;;;;;;5071727;28;20077;-65
2022/12/20 10:13:03;;;;;;;10.02;5.90;;;8.40;99.90;;;;;;5034173;28;20124;-64
2022/12/20 10:15:37;;;;;;;10.35;5.18;;;8.50;99.90;;;;;;5033386;28;20030;-65
2022/12/20 10:18:22;;;;;;;9.48;5.60;;;8.50;99.90;;;;;;5032269;28;20037;-66
2022/12/20 10:21:05;;;;;;;8.95;5.22;;;8.50;99.90;;;;;;5040904;28;20041;-65
2022/12/20 10:23:42;;;;;;;9.95;5.68;;;8.50;99.90;;;;;;5039892;28;20147;-65
2022/12/20 10:26:10;;;;;;;8.00;5.22;;;8.50;99.90;;;;;;5034371;28;20653;-66
2022/12/20 10:28:36;;;;;;;9.93;5.28;;;8.50;99.90;;;;;;5044478;28;20040;-65
2022/12/20 10:31:04;;;;;;;;;;;8.60;99.90;;;;;;5039448;28;20052;-65
2022/12/20 10:33:31;;;;;;;7.90;4.35;;;8.60;99.90;;;;;;5033792;28;19932;-66
2022/12/20 10:36:18;;;;;;;8.43;5.05;;;8.60;99.90;;;;;;5041057;28;20033;-69
2022/12/20 10:38:46;;;;;;;10.80;4.72;;;8.70;99.90;;;;;;5042655;28;20051;-66
2022/12/20 10:41:24;;;;;;;11.43;5.18;;;8.70;99.90;;;;;;5041208;28;20045;-67
2022/12/20 10:44:03;;;;;;;6.10;4.00;;;8.70;99.90;;;;;;5041728;28;20509;-67
2022/12/20 10:46:59;;;;;;;8.02;4.47;;;8.80;99.90;;;;;;5037124;28;20037;-64
2022/12/20 10:49:30;;;;;;;7.68;4.25;;;8.70;99.90;;;;;;5035807;28;20523;-63
2022/12/20 10:52:02;;;;;;;7.25;4.18;;;8.80;99.90;;;;;;5037948;28;20049;-64
2022/12/20 10:54:38;;;;;;;7.25;3.80;;;8.80;99.90;;;;;;5031998;28;20047;-62
2022/12/20 10:57:21;;;;;;;7.47;4.30;;;8.90;99.90;;;;;;5036803;28;20131;-64
2022/12/20 10:59:59;;;;;;;6.65;3.88;;;8.90;99.90;;;;;;5043459;28;20152;-63
2022/12/20 11:02:36;;;;;;;9.98;4.15;;;8.90;99.90;;;;;;5037216;28;20037;-65
2022/12/20 11:05:14;;;;;;;9.07;3.55;;;9.00;99.90;;;;;;5036872;28;20126;-65
2022/12/20 11:07:56;;;;;;;6.30;3.58;;;9.20;99.90;;;;;;5028855;28;20049;-64
2022/12/20 11:10:27;;;;;;;6.13;3.50;;;9.50;99.90;;;;;;5029736;28;20112;-66
2022/12/20 11:13:00;;;;;;;7.47;3.40;;;9.70;99.90;;;;;;5038059;28;20106;-71
2022/12/20 11:15:30;;;;;;;6.55;3.97;;;9.90;99.90;;;;;;5041907;28;20476;-67
2022/12/20 11:18:00;;;;;;;5.43;3.45;;;10.10;99.90;;;;;;5036029;28;20041;-67
2022/12/20 11:20:59;;;;;;;9.13;3.65;;;10.10;99.90;;;;;;5043258;28;20041;-66
2022/12/20 11:23:59;;;;;;;6.43;3.35;;;9.90;99.90;;;;;;5026765;28;20060;-66
2022/12/20 11:26:27;;;;;;;6.25;3.60;;;9.70;99.90;;;;;;5033549;28;20045;-68
2022/12/20 11:28:53;;;;;;;7.25;3.22;;;9.60;99.90;;;;;;5044949;28;20060;-67
2022/12/20 11:31:28;;;;;;;;;;;9.50;99.90;;;;;;5039168;28;20045;-70
2022/12/20 11:34:19;;;;;;;8.35;3.97;;;9.50;99.90;;;;;;5039448;28;20480;-66
2022/12/20 11:36:48;;;;;;;5.10;3.20;;;9.50;99.90;;;;;;5058590;28;20616;-67
2022/12/20 11:39:32;;;;;;;8.23;3.42;;;9.40;99.90;;;;;;5035871;28;20045;-65
2022/12/20 11:42:13;;;;;;;7.82;3.45;;;9.50;99.90;;;;;;5029839;28;20056;-66
2022/12/20 11:44:49;;;;;;;7.35;4.07;;;9.50;99.90;;;;;;5040624;28;20059;-66
2022/12/20 11:47:36;;;;;;;7.40;3.03;;;9.40;99.90;;;;;;5034004;28;20049;-68
2022/12/20 11:50:29;;;;;;;6.07;3.67;;;9.50;99.90;;;;;;5042684;28;20560;-65
2022/12/20 11:53:03;;;;;;;4.97;3.08;;;9.50;99.90;;;;;;5035511;28;20484;-66
2022/12/20 11:55:35;;;;;;;4.97;3.28;;;9.50;99.90;;;;;;5038892;28;20695;-65
2022/12/20 11:58:10;;;;;;;6.60;3.60;;;9.40;99.90;;;;;;5034588;28;20065;-64
2022/12/20 12:00:38;;;;;;;7.55;3.22;;;9.40;99.90;;;;;;5040235;28;20052;-67
2022/12/20 12:03:20;;;;;;;7.18;3.40;;;9.50;99.90;;;;;;5035863;28;20064;-67
2022/12/20 12:05:51;;;;;;;9.13;3.55;;;9.50;99.90;;;;;;5034825;28;20083;-67
2022/12/20 12:09:08;;;;;;;7.60;3.42;;;9.50;99.90;;;;;;5032731;28;20040;-65
2022/12/20 12:11:40;;;;;;;5.32;3.22;;;9.70;99.90;;;;;;5031367;28;20053;-65
2022/12/20 12:14:12;;;;;;;5.13;3.20;;;9.70;99.90;;;;;;5039036;28;20049;-67
2022/12/20 12:16:44;;;;;;;6.38;4.15;;;9.80;99.90;;;;;;5041842;28;20041;-66
2022/12/20 12:19:11;;;;;;;9.48;3.47;;;9.80;99.90;;;;;;5035393;28;20053;-66
2022/12/20 12:21:54;;;;;;;5.45;3.40;;;9.60;99.90;;;;;;5035891;28;20041;-66
2022/12/20 12:24:34;;;;;;;8.30;3.67;;;9.60;99.90;;;;;;5038499;28;20516;-66
2022/12/20 12:27:01;;;;;;;5.75;3.45;;;9.60;99.90;;;;;;5032949;28;20046;-67
2022/12/20 12:29:28;;;;;;;8.85;3.70;;;9.50;99.90;;;;;;5043569;28;20049;-67
2022/12/20 12:32:22;;;;;;;7.90;3.78;;;9.50;99.90;;;;;;5041935;28;20130;-67
2022/12/20 12:34:53;;;;;;;8.00;3.53;;;9.50;99.90;;;;;;5034997;28;20033;-67
2022/12/20 12:37:32;;;;;;;8.70;3.47;;;9.50;99.90;;;;;;5036594;28;20037;-67
2022/12/20 12:40:25;;;;;;;9.10;3.85;;;9.50;99.90;;;;;;5040768;28;20660;-67
2022/12/20 12:42:56;;;;;;;7.03;3.80;;;9.40;99.90;;;;;;5038694;28;20112;-66
2022/12/20 12:45:46;;;;;;;6.00;3.03;;;9.40;99.90;;;;;;5034903;28;20052;-66
2022/12/20 12:48:30;;;;;;;10.05;3.60;;;9.40;99.90;;;;;;5042201;28;20037;-66
2022/12/20 12:50:57;;;;;;;6.22;3.47;;;9.40;99.90;;;;;;5033558;28;20037;-66
2022/12/20 12:53:34;;;;;;;7.65;3.92;;;9.30;99.90;;;;;;5038062;28;20499;-66
2022/12/20 12:56:26;;;;;;;8.25;3.28;;;9.30;99.90;;;;;;5034263;28;20505;-65
2022/12/20 12:59:06;;;;;;;6.97;3.08;;;9.30;99.90;;;;;;5036615;28;20105;-65
2022/12/20 13:01:54;;;;;;;5.30;3.20;;;9.40;99.90;;;;;;5031935;28;20056;-66
2022/12/20 13:04:19;;;;;;;5.97;3.03;;;9.40;99.90;;;;;;5042662;28;20140;-65
2022/12/20 13:06:51;;;;;;;;;;;9.40;99.90;;;;;;5043849;28;20190;-64
2022/12/20 13:09:17;;;;;;;5.68;2.85;;;9.40;99.90;;;;;;5045769;28;19917;-66
2022/12/20 13:11:43;;;;;;;;;;;9.40;99.90;;;;;;5041427;28;20066;-66
2022/12/20 13:14:31;;;;;;;6.32;2.60;;;9.50;99.90;;;;;;5036626;28;19973;-67
2022/12/20 13:17:03;;;;;;;6.57;2.95;;;9.50;99.90;;;;;;5037351;28;20120;-66
2022/12/20 13:19:28;;;;;;;5.60;2.97;;;9.60;99.90;;;;;;5043585;28;20091;-67
2022/12/20 13:21:58;;;;;;;;;;;9.60;99.90;;;;;;5044606;28;20044;-66
2022/12/20 13:24:49;;;;;;;3.70;2.35;;;9.60;99.90;;;;;;5043726;28;19917;-66
2022/12/20 13:27:33;;;;;;;7.40;3.40;;;9.50;99.90;;;;;;5039136;28;20386;-67
2022/12/20 13:30:16;;;;;;;5.07;2.47;;;9.50;99.90;;;;;;5038090;28;20071;-66
2022/12/20 13:32:47;;;;;;;5.22;2.60;;;9.50;99.90;;;;;;5017422;28;20081;-67